Time;durP1;ratioP1;P1;durP2;ratioP2;P2;SDS_P1;SDS_P2;PMS_P1;PMS_P2;Temp;Humidity;BMP_temperature;BMP_pressure;BME280_temperature;BME280_humidity;BME280_pressure;Samples;Min_cycle;Max_cycle;Signal;HPM_P1;HPM_P2
2023/07/15 00:01:28;;;;;;;4.55;3.53;;;18.90;99.90;;;;;;5069303;28;20080;-45
2023/07/15 00:03:54;;;;;;;6.93;4.13;;;18.80;99.90;;;;;;5065964;28;20094;-46
2023/07/15 00:06:21;;;;;;;5.22;4.28;;;18.80;99.90;;;;;;5068350;28;20051;-44
2023/07/15 00:08:47;;;;;;;6.40;3.25;;;18.80;99.90;;;;;;5067343;28;20040;-44
2023/07/15 00:11:25;;;;;;;7.25;4.05;;;18.70;99.90;;;;;;5063525;28;20055;-44
2023/07/15 00:13:52;;;;;;;3.97;3.30;;;18.70;99.90;;;;;;5067769;28;20052;-44
2023/07/15 00:16:18;;;;;;;4.82;3.28;;;18.70;99.90;;;;;;5067844;28;20397;-44
2023/07/15 00:18:45;;;;;;;4.53;3.20;;;18.80;99.90;;;;;;5069741;28;20142;-44
2023/07/15 00:21:16;;;;;;;5.63;3.55;;;18.80;99.90;;;;;;5068297;28;20120;-44
2023/07/15 00:23:42;;;;;;;5.25;3.10;;;18.80;99.90;;;;;;5070986;28;20476;-45
2023/07/15 00:26:07;;;;;;;6.97;3.90;;;18.80;99.90;;;;;;5067337;28;20131;-43
2023/07/15 00:28:33;;;;;;;5.03;3.25;;;18.80;99.90;;;;;;5069780;28;20047;-43
2023/07/15 00:30:59;;;;;;;6.53;3.63;;;18.80;99.90;;;;;;5090693;28;20047;-42
2023/07/15 00:33:25;;;;;;;7.22;3.28;;;18.80;99.90;;;;;;5087766;28;20110;-43
2023/07/15 00:35:51;;;;;;;4.38;3.25;;;18.80;99.90;;;;;;5059681;28;20040;-43
2023/07/15 00:38:16;;;;;;;4.15;3.42;;;18.80;99.90;;;;;;5055113;28;20086;-42
2023/07/15 00:40:47;;;;;;;7.75;3.50;;;18.80;99.90;;;;;;5072612;28;20093;-44
2023/07/15 00:43:50;;;;;;;4.35;3.10;;;18.80;99.90;;;;;;5071754;28;20040;-43
2023/07/15 00:46:22;;;;;;;3.85;3.17;;;18.80;99.90;;;;;;5063093;28;20136;-45
2023/07/15 00:49:01;;;;;;;4.00;2.88;;;18.80;99.90;;;;;;5071812;28;20190;-43
2023/07/15 00:51:29;;;;;;;3.92;2.90;;;18.90;99.90;;;;;;5073029;28;20512;-43
2023/07/15 00:53:55;;;;;;;3.45;2.90;;;18.90;99.90;;;;;;5071804;28;20046;-43
2023/07/15 00:56:22;;;;;;;5.55;3.13;;;19.00;99.90;;;;;;5064975;28;20036;-45
2023/07/15 00:58:48;;;;;;;;;;;19.00;99.90;;;;;;5062995;28;20045;-43
2023/07/15 01:01:14;;;;;;;;;;;19.00;99.90;;;;;;5064678;28;19924;-45
2023/07/15 01:03:40;;;;;;;;;;;19.00;99.90;;;;;;5064260;28;19921;-43
2023/07/15 01:06:06;;;;;;;;;;;19.10;99.90;;;;;;5061994;28;19971;-44
2023/07/15 01:08:32;;;;;;;;;;;19.10;99.90;;;;;;5064696;28;19928;-44
2023/07/15 01:10:57;;;;;;;;;;;19.10;99.90;;;;;;5064530;28;19920;-43
2023/07/15 01:13:23;;;;;;;;;;;19.20;99.90;;;;;;5066407;28;19959;-45
2023/07/15 01:15:49;;;;;;;;;;;19.30;99.90;;;;;;5063242;28;20036;-43
2023/07/15 01:18:14;;;;;;;;;;;19.30;99.90;;;;;;5064620;28;20246;-45
2023/07/15 01:20:40;;;;;;;;;;;19.40;99.90;;;;;;5064635;28;20224;-43
2023/07/15 01:23:05;;;;;;;;;;;19.40;99.90;;;;;;5065076;28;20064;-43
2023/07/15 01:25:31;;;;;;;;;;;19.40;99.90;;;;;;5063109;28;21341;-43
2023/07/15 01:27:56;;;;;;;;;;;19.40;99.90;;;;;;5068710;28;19971;-43
2023/07/15 01:30:22;;;;;;;;;;;19.50;99.90;;;;;;5066294;28;19928;-46
2023/07/15 01:32:48;;;;;;;;;;;19.50;99.90;;;;;;5067582;28;19931;-44
2023/07/15 01:35:14;;;;;;;;;;;19.50;99.90;;;;;;5067121;28;20419;-43
2023/07/15 01:37:40;;;;;;;;;;;19.50;99.90;;;;;;5062917;28;19921;-44
2023/07/15 01:40:08;;;;;;;;;;;19.60;99.90;;;;;;5064206;28;19956;-45
2023/07/15 01:42:34;;;;;;;;;;;19.60;99.90;;;;;;5063590;28;19921;-45
2023/07/15 01:44:59;;;;;;;;;;;19.60;99.90;;;;;;5064547;28;20229;-43
2023/07/15 01:47:25;;;;;;;;;;;19.60;99.90;;;;;;5063084;28;19927;-46
2023/07/15 01:49:50;;;;;;;;;;;19.60;99.90;;;;;;5064241;28;19920;-44
2023/07/15 01:52:16;;;;;;;;;;;19.60;99.90;;;;;;5061602;28;20029;-49
2023/07/15 01:54:41;;;;;;;;;;;19.60;99.90;;;;;;5063840;28;20469;-47
2023/07/15 01:57:07;;;;;;;;;;;19.60;99.90;;;;;;5063137;28;19924;-44
2023/07/15 01:59:33;;;;;;;;;;;19.70;99.90;;;;;;5066937;28;19921;-45
2023/07/15 02:01:59;;;;;;;;;;;19.70;99.90;;;;;;5063031;28;19935;-47
2023/07/15 02:04:24;;;;;;;;;;;19.80;99.90;;;;;;5066979;28;19965;-43
2023/07/15 02:06:50;;;;;;;;;;;19.80;99.90;;;;;;5063510;28;19927;-47
2023/07/15 02:09:16;;;;;;;;;;;19.70;99.90;;;;;;5067510;28;20427;-44
2023/07/15 02:11:41;;;;;;;;;;;19.80;99.90;;;;;;5067797;28;19978;-44
2023/07/15 02:14:08;;;;;;;;;;;19.80;99.90;;;;;;5066460;28;21421;-45
2023/07/15 02:16:34;;;;;;;;;;;19.80;99.90;;;;;;5065101;28;19928;-45
2023/07/15 02:19:00;;;;;;;;;;;19.80;99.90;;;;;;5062578;28;19920;-44
2023/07/15 02:21:25;;;;;;;;;;;19.90;99.90;;;;;;5067342;28;19920;-44
2023/07/15 02:23:54;;;;;;;;;;;20.00;99.90;;;;;;5065659;28;19971;-44
2023/07/15 02:26:20;;;;;;;;;;;20.00;99.90;;;;;;5068093;28;19932;-44
2023/07/15 02:28:45;;;;;;;;;;;20.00;99.90;;;;;;5064946;28;20265;-45
2023/07/15 02:31:11;;;;;;;;;;;20.10;99.90;;;;;;5065271;28;20462;-45
2023/07/15 02:33:38;;;;;;;;;;;20.20;99.90;;;;;;5061904;28;19921;-44
2023/07/15 02:36:04;;;;;;;;;;;20.30;99.90;;;;;;5065538;28;19929;-49
2023/07/15 02:38:31;;;;;;;;;;;20.30;99.90;;;;;;5044225;28;20376;-43
2023/07/15 02:40:56;;;;;;;;;;;20.30;99.90;;;;;;5059948;28;19960;-46
2023/07/15 02:43:22;;;;;;;;;;;20.40;99.90;;;;;;5062541;28;20383;-46
2023/07/15 02:45:51;;;;;;;;;;;20.40;99.90;;;;;;5061744;28;19931;-42
2023/07/15 02:48:17;;;;;;;;;;;20.40;99.90;;;;;;5064206;28;20251;-44
2023/07/15 02:50:42;;;;;;;;;;;20.40;99.90;;;;;;5062030;28;19920;-46
2023/07/15 02:53:08;;;;;;;;;;;20.40;99.90;;;;;;5063276;28;20274;-44
2023/07/15 02:55:33;;;;;;;;;;;20.50;99.90;;;;;;5063593;28;20344;-44
2023/07/15 02:57:59;;;;;;;;;;;20.50;99.90;;;;;;5063063;28;19932;-44
2023/07/15 03:00:24;;;;;;;;;;;20.50;99.90;;;;;;5063663;28;19926;-45
2023/07/15 03:02:51;;;;;;;;;;;20.50;99.90;;;;;;5065472;28;19928;-44
2023/07/15 03:05:17;;;;;;;;;;;20.50;99.90;;;;;;5066059;28;20369;-44
2023/07/15 03:07:44;;;;;;;;;;;20.50;99.90;;;;;;5066302;28;20043;-42
2023/07/15 03:10:12;;;;;;;;;;;20.50;99.90;;;;;;5067186;28;19932;-46
2023/07/15 03:12:37;;;;;;;;;;;20.40;99.90;;;;;;5065983;28;19920;-43
2023/07/15 03:15:04;;;;;;;;;;;20.40;99.90;;;;;;5062754;28;19927;-46
2023/07/15 03:17:35;;;;;;;;;;;20.40;99.90;;;;;;5066689;28;19924;-48
2023/07/15 03:20:13;;;;;;;;;;;20.40;99.90;;;;;;5065261;28;20015;-46
2023/07/15 03:22:38;;;;;;;;;;;20.30;99.90;;;;;;5065224;28;20377;-44
2023/07/15 03:25:05;;;;;;;;;;;20.30;99.90;;;;;;5065982;28;19924;-44
2023/07/15 03:27:31;;;;;;;;;;;20.30;99.90;;;;;;5067942;28;19965;-45
2023/07/15 03:29:56;;;;;;;;;;;20.30;99.90;;;;;;5069147;28;20007;-43
2023/07/15 03:32:23;;;;;;;;;;;20.20;99.90;;;;;;5070718;28;19931;-44
2023/07/15 03:34:48;;;;;;;;;;;20.20;99.90;;;;;;5069201;28;19981;-45
2023/07/15 03:37:14;;;;;;;;;;;20.10;99.90;;;;;;5066887;28;20014;-45
2023/07/15 03:39:40;;;;;;;;;;;20.10;99.90;;;;;;5070682;28;20368;-46
2023/07/15 03:42:06;;;;;;;;;;;20.10;99.90;;;;;;5067646;28;19981;-45
2023/07/15 03:44:32;;;;;;;;;;;20.10;99.90;;;;;;5067506;28;20403;-44
2023/07/15 03:46:57;;;;;;;;;;;20.10;99.90;;;;;;5068372;28;19934;-47
2023/07/15 03:49:23;;;;;;;;;;;20.00;99.90;;;;;;5068483;28;20305;-45
2023/07/15 03:51:49;;;;;;;;;;;20.10;99.90;;;;;;5068532;28;20273;-44
2023/07/15 03:54:14;;;;;;;;;;;20.10;99.90;;;;;;5069936;28;19920;-45
2023/07/15 03:56:41;;;;;;;;;;;20.20;99.90;;;;;;5069741;28;19920;-43
2023/07/15 03:59:06;;;;;;;;;;;20.20;99.90;;;;;;5069508;28;20380;-46
2023/07/15 04:01:34;;;;;;;;;;;20.20;99.90;;;;;;5067372;28;19920;-44
2023/07/15 04:04:04;;;;;;;;;;;20.20;99.90;;;;;;5069114;28;19920;-48
2023/07/15 04:06:32;;;;;;;;;;;20.20;99.90;;;;;;5070079;28;19925;-44
2023/07/15 04:08:58;;;;;;;;;;;20.20;99.90;;;;;;5065191;28;20392;-44
2023/07/15 04:11:24;;;;;;;;;;;20.20;99.90;;;;;;5070847;28;19924;-45
2023/07/15 04:13:49;;;;;;;;;;;20.20;99.90;;;;;;5070527;28;20273;-45
2023/07/15 04:16:15;;;;;;;;;;;20.20;99.90;;;;;;5066752;28;19966;-47
2023/07/15 04:18:42;;;;;;;;;;;20.10;99.90;;;;;;5067825;28;20282;-45
2023/07/15 04:21:08;;;;;;;;;;;20.10;99.90;;;;;;5069741;28;19920;-44
2023/07/15 04:23:33;;;;;;;;;;;20.20;99.90;;;;;;5068782;28;19920;-43
2023/07/15 04:25:59;;;;;;;;;;;20.20;99.90;;;;;;5069922;28;19993;-44
2023/07/15 04:28:24;;;;;;;;;;;20.30;99.90;;;;;;5068971;28;19955;-44
2023/07/15 04:30:50;;;;;;;;;;;20.40;99.90;;;;;;5069723;28;19924;-47
2023/07/15 04:33:16;;;;;;;;;;;20.40;99.90;;;;;;5070734;28;19921;-44
2023/07/15 04:35:42;;;;;;;;;;;20.40;99.90;;;;;;5070585;28;19924;-43
2023/07/15 04:38:09;;;;;;;;;;;20.40;99.90;;;;;;5071062;28;19973;-48
2023/07/15 04:40:34;;;;;;;;;;;20.70;99.90;;;;;;5069746;28;19928;-45
2023/07/15 04:43:00;;;;;;;;;;;21.20;99.90;;;;;;5067968;28;19920;-46
2023/07/15 04:45:26;;;;;;;;;;;22.30;99.90;;;;;;5070150;28;19920;-48
2023/07/15 04:47:52;;;;;;;;;;;23.20;99.90;;;;;;5069090;28;19925;-43
2023/07/15 04:50:17;;;;;;;;;;;24.10;99.90;;;;;;5069102;28;20383;-44
2023/07/15 04:52:43;;;;;;;;;;;24.80;99.90;;;;;;5068759;28;20315;-46
2023/07/15 04:55:10;;;;;;;;;;;25.30;99.90;;;;;;5067835;28;19928;-45
2023/07/15 04:57:35;;;;;;;;;;;26.00;99.90;;;;;;5065892;28;19926;-43
2023/07/15 05:00:01;;;;;;;;;;;26.70;99.90;;;;;;5065074;28;20371;-43
2023/07/15 05:02:27;;;;;;;;;;;26.80;99.90;;;;;;5066970;28;19968;-43
2023/07/15 05:04:52;;;;;;;;;;;27.30;99.90;;;;;;5066114;28;19927;-44
2023/07/15 05:07:18;;;;;;;;;;;27.60;98.80;;;;;;5064989;28;19928;-46
2023/07/15 05:09:43;;;;;;;;;;;27.30;98.90;;;;;;5069373;28;19957;-46
2023/07/15 05:12:10;;;;;;;;;;;27.50;98.80;;;;;;5066320;28;19955;-44
2023/07/15 05:14:36;;;;;;;;;;;27.90;97.60;;;;;;5064632;28;19921;-45
2023/07/15 05:17:05;;;;;;;;;;;28.30;98.70;;;;;;5064260;28;19947;-45
2023/07/15 05:19:32;;;;;;;;;;;;;;;;;;5063433;28;20365;-44
2023/07/15 05:21:57;;;;;;;;;;;29.00;97.20;;;;;;5064484;28;19946;-45
2023/07/15 05:24:28;;;;;;;;;;;28.40;97.00;;;;;;5064821;28;20364;-44
2023/07/15 05:26:54;;;;;;;;;;;28.80;97.00;;;;;;5060992;28;19936;-45
2023/07/15 05:29:20;;;;;;;;;;;29.40;97.40;;;;;;5064722;28;19989;-44
2023/07/15 05:31:45;;;;;;;;;;;29.80;95.30;;;;;;5063665;28;19924;-46
2023/07/15 05:34:11;;;;;;;;;;;;;;;;;;5063466;28;19920;-43
2023/07/15 05:36:37;;;;;;;;;;;30.50;95.60;;;;;;5064699;28;20010;-43
2023/07/15 05:39:03;;;;;;;;;;;;;;;;;;5065921;28;19920;-43
2023/07/15 05:41:28;;;;;;;;;;;30.80;94.20;;;;;;5062866;28;19970;-44
2023/07/15 05:43:54;;;;;;;;;;;31.40;94.70;;;;;;5064575;28;19928;-44
2023/07/15 05:46:20;;;;;;;;;;;30.40;94.50;;;;;;5060769;28;19921;-46
2023/07/15 05:48:46;;;;;;;;;;;30.20;95.00;;;;;;5063327;28;19921;-43
2023/07/15 05:51:11;;;;;;;;;;;30.70;94.70;;;;;;5064104;28;21479;-45
2023/07/15 05:53:37;;;;;;;;;;;31.00;95.10;;;;;;5064195;28;19921;-44
2023/07/15 05:56:03;;;;;;;;;;;31.20;94.20;;;;;;5062003;28;19924;-45
2023/07/15 05:58:29;;;;;;;;;;;;;;;;;;5061790;28;19943;-45
2023/07/15 06:00:55;;;;;;;;;;;32.00;94.20;;;;;;5062298;28;20023;-44
2023/07/15 06:03:21;;;;;;;;;;;32.20;92.80;;;;;;5064161;28;20569;-44
2023/07/15 06:05:46;;;;;;;;;;;32.50;92.90;;;;;;5060600;28;19930;-46
2023/07/15 06:08:12;;;;;;;;;;;32.70;93.20;;;;;;5065063;28;19939;-49
2023/07/15 06:10:37;;;;;;;;;;;32.80;92.60;;;;;;5061734;28;19924;-45
2023/07/15 06:13:03;;;;;;;;;;;33.00;91.80;;;;;;5062116;28;19921;-45
2023/07/15 06:15:29;;;;;;;;;;;33.30;91.90;;;;;;5062132;28;19974;-44
2023/07/15 06:17:57;;;;;;;;;;;33.40;92.10;;;;;;5057487;28;19951;-47
2023/07/15 06:20:23;;;;;;;;;;;33.60;91.60;;;;;;5058936;28;20296;-45
2023/07/15 06:22:49;;;;;;;;;;;33.70;91.80;;;;;;5063024;28;20007;-45
2023/07/15 06:25:16;;;;;;;;;;;33.40;91.30;;;;;;5064112;28;20011;-47
2023/07/15 06:27:41;;;;;;;;;;;33.50;91.40;;;;;;5059698;28;19939;-47
2023/07/15 06:30:07;;;;;;;;;;;33.50;90.50;;;;;;5062588;28;20360;-47
2023/07/15 06:32:33;;;;;;;;;;;33.40;90.40;;;;;;5062130;28;19940;-44
2023/07/15 06:34:58;;;;;;;;;;;33.60;90.90;;;;;;5060462;28;20302;-45
2023/07/15 06:37:24;;;;;;;;;;;33.60;90.50;;;;;;5066021;28;19920;-44
2023/07/15 06:39:49;;;;;;;;;;;33.60;90.70;;;;;;5061801;28;19997;-46
2023/07/15 06:42:15;;;;;;;;;;;33.70;90.10;;;;;;5062069;28;19932;-44
2023/07/15 06:44:40;;;;;;;;;;;33.60;90.30;;;;;;5063924;28;20295;-45
2023/07/15 06:47:12;;;;;;;;;;;33.60;90.10;;;;;;5066703;28;20353;-46
2023/07/15 06:49:38;;;;;;;;;;;33.50;89.30;;;;;;5064545;28;19920;-48
2023/07/15 06:52:03;;;;;;;;;;;33.00;89.70;;;;;;5059041;28;20020;-46
2023/07/15 06:54:30;;;;;;;;;;;33.30;89.00;;;;;;5062238;28;20248;-46
2023/07/15 06:56:55;;;;;;;;;;;33.00;90.10;;;;;;5063753;28;19968;-44
2023/07/15 06:59:21;;;;;;;;;;;33.20;90.80;;;;;;5062354;28;20400;-44
2023/07/15 07:01:47;;;;;;;;;;;33.40;90.30;;;;;;5046285;28;19969;-46
2023/07/15 07:04:13;;;;;;;;;;;33.60;90.40;;;;;;5063717;28;20513;-46
2023/07/15 07:06:38;;;;;;;;;;;33.20;90.40;;;;;;5069360;28;20015;-44
2023/07/15 07:09:04;;;;;;;;;;;33.40;90.90;;;;;;5068291;28;19932;-48
2023/07/15 07:11:29;;;;;;;;;;;33.00;90.90;;;;;;5065753;28;19964;-43
2023/07/15 07:13:55;;;;;;;;;;;33.30;90.90;;;;;;5066444;28;19943;-49
2023/07/15 07:16:21;;;;;;;;;;;33.10;91.20;;;;;;5060228;28;19927;-48
2023/07/15 07:18:46;;;;;;;;;;;32.90;91.00;;;;;;5065209;28;19986;-45
2023/07/15 07:21:12;;;;;;;;;;;32.70;91.40;;;;;;5063468;28;20012;-46
2023/07/15 07:23:37;;;;;;;;;;;32.80;91.20;;;;;;5067822;28;20015;-45
2023/07/15 07:26:03;;;;;;;;;;;32.50;91.50;;;;;;5067514;28;19943;-44
2023/07/15 07:28:40;;;;;;;;;;;32.60;91.40;;;;;;5066066;28;19928;-45
2023/07/15 07:31:06;;;;;;;;;;;32.50;91.50;;;;;;5064769;28;20051;-45
2023/07/15 07:33:31;;;;;;;;;;;32.70;91.40;;;;;;5066729;28;20011;-44
2023/07/15 07:35:57;;;;;;;;;;;32.70;91.30;;;;;;5070939;28;19931;-49
2023/07/15 07:38:22;;;;;;;;;;;32.90;91.80;;;;;;5063928;28;20042;-46
2023/07/15 07:40:48;;;;;;;;;;;32.80;91.30;;;;;;5067275;28;20357;-46
2023/07/15 07:43:13;;;;;;;;;;;32.90;91.90;;;;;;5067740;28;19920;-47
2023/07/15 07:45:39;;;;;;;;;;;32.50;91.40;;;;;;5065116;28;20396;-43
2023/07/15 07:48:08;;;;;;;;;;;32.00;91.80;;;;;;5064899;28;20289;-45
2023/07/15 07:50:34;;;;;;;;;;;31.60;91.70;;;;;;5065194;28;19924;-50
2023/07/15 07:53:00;;;;;;;;;;;31.00;92.10;;;;;;5062554;28;20004;-45
2023/07/15 07:55:25;;;;;;;;;;;30.60;92.50;;;;;;5068658;28;20007;-44
2023/07/15 07:57:51;;;;;;;;;;;30.00;92.90;;;;;;5069369;28;19951;-48
2023/07/15 08:00:16;;;;;;;;;;;30.00;93.40;;;;;;5066398;28;20880;-48
2023/07/15 08:02:42;;;;;;;;;;;29.30;93.50;;;;;;5064597;28;20003;-46
2023/07/15 08:05:08;;;;;;;;;;;29.10;93.70;;;;;;5069433;28;19925;-47
2023/07/15 08:07:34;;;;;;;;;;;29.10;94.60;;;;;;5069955;28;20323;-46
2023/07/15 08:09:59;;;;;;;;;;;29.00;94.50;;;;;;5070178;28;19916;-43
2023/07/15 08:12:25;;;;;;;;;;;28.60;94.60;;;;;;5069132;28;19920;-47
2023/07/15 08:14:51;;;;;;;;;;;28.50;94.70;;;;;;5069512;28;19956;-46
2023/07/15 08:17:17;;;;;;;;;;;28.60;95.00;;;;;;5070357;28;19966;-44
2023/07/15 08:19:43;;;;;;;;;;;28.60;95.00;;;;;;5070428;28;20384;-43
2023/07/15 08:22:09;;;;;;;;;;;28.80;95.30;;;;;;5069277;28;19946;-46
2023/07/15 08:24:34;;;;;;;;;;;28.50;95.90;;;;;;5050842;28;19973;-47
2023/07/15 08:27:00;;;;;;;;;;;28.90;96.00;;;;;;5070150;28;20040;-46
2023/07/15 08:29:25;;;;;;;;;;;28.90;95.70;;;;;;5068194;28;19920;-44
2023/07/15 08:31:51;;;;;;;;;;;29.10;96.00;;;;;;5070888;28;19920;-43
2023/07/15 08:34:17;;;;;;;;;;;29.20;95.50;;;;;;5067836;28;19921;-49
2023/07/15 08:36:42;;;;;;;;;;;29.10;96.10;;;;;;5067253;28;19931;-44
2023/07/15 08:39:08;;;;;;;;;;;29.00;96.00;;;;;;5067059;28;20017;-46
2023/07/15 08:41:34;;;;;;;;;;;28.70;96.30;;;;;;5071837;28;20379;-44
2023/07/15 08:43:59;;;;;;;;;;;29.10;96.30;;;;;;5066794;28;19921;-45
2023/07/15 08:46:26;;;;;;;;;;;29.30;96.50;;;;;;5068867;28;19920;-44
2023/07/15 08:48:55;;;;;;;;;;;29.20;96.70;;;;;;5066388;28;20019;-43
2023/07/15 08:51:22;;;;;;;;;;;29.00;96.50;;;;;;5070154;28;19939;-43
2023/07/15 08:53:48;;;;;;;;;;;28.80;96.60;;;;;;5064800;28;19921;-44
2023/07/15 08:56:15;;;;;;;;;;;28.60;96.20;;;;;;5068916;28;19935;-45
2023/07/15 08:58:40;;;;;;;;;;;28.40;96.60;;;;;;5068147;28;20393;-43
2023/07/15 09:01:06;;;;;;;;;;;28.30;96.70;;;;;;5069138;28;19924;-45
2023/07/15 09:03:31;;;;;;;;;;;28.40;97.40;;;;;;5066615;28;20916;-45
2023/07/15 09:05:57;;;;;;;;;;;28.90;97.40;;;;;;5063958;28;20302;-46
2023/07/15 09:08:24;;;;;;;;;;;28.90;96.30;;;;;;5066216;28;19930;-44
2023/07/15 09:10:58;;;;;;;;;;;28.90;96.40;;;;;;5067046;28;19974;-44
2023/07/15 09:13:25;;;;;;;;;;;29.00;97.20;;;;;;5065469;28;20388;-44
2023/07/15 09:15:52;;;;;;;;;;;29.40;97.40;;;;;;5061658;28;20312;-46
2023/07/15 09:18:18;;;;;;;;;;;29.40;96.70;;;;;;5065335;28;20074;-46
2023/07/15 09:20:44;;;;;;;;;;;29.30;96.60;;;;;;5065738;28;19942;-50
2023/07/15 09:23:10;;;;;;;;;;;29.50;96.70;;;;;;5063844;28;19921;-48
2023/07/15 09:25:36;;;;;;;;;;;29.50;96.80;;;;;;5064256;28;20040;-47
2023/07/15 09:28:02;;;;;;;;;;;29.50;96.60;;;;;;5068437;28;20090;-46
2023/07/15 09:30:27;;;;;;;;;;;29.40;97.20;;;;;;5049756;28;20341;-46
2023/07/15 09:32:53;;;;;;;;;;;29.30;96.00;;;;;;5063734;28;20352;-45
2023/07/15 09:35:20;;;;;;;;;;;29.50;95.90;;;;;;5067004;28;19920;-46
2023/07/15 09:37:46;;;;;;;;;;;29.50;96.30;;;;;;5062802;28;19939;-48
2023/07/15 09:40:12;;;;;;;;;;;29.30;96.40;;;;;;5062626;28;19925;-49
2023/07/15 09:42:54;;;;;;;;;;;29.20;96.70;;;;;;5066367;28;20019;-47
2023/07/15 09:45:38;;;;;;;;;;;28.90;96.60;;;;;;5061612;28;20036;-50
2023/07/15 09:48:05;;;;;;;;;;;28.70;96.50;;;;;;5068221;28;19920;-48
2023/07/15 09:50:31;;;;;;;;;;;28.50;96.80;;;;;;5065749;28;19920;-46
2023/07/15 09:52:58;;;;;;;;;;;28.20;97.00;;;;;;5067868;28;19920;-46
2023/07/15 09:55:24;;;;;;;;;;;28.40;97.60;;;;;;5067471;28;19920;-46
2023/07/15 09:57:53;;;;;;;;;;;28.40;97.30;;;;;;5065602;28;19927;-45
2023/07/15 10:00:19;;;;;;;;;;;28.40;97.40;;;;;;5068870;28;20048;-47
2023/07/15 10:02:52;;;;;;;;;;;28.30;97.50;;;;;;5066861;28;19955;-46
2023/07/15 10:05:18;;;;;;;;;;;28.40;97.50;;;;;;5066731;28;20331;-48
2023/07/15 10:07:44;;;;;;;;;;;28.40;98.00;;;;;;5069196;28;19920;-46
2023/07/15 10:10:10;;;;;;;;;;;28.30;98.00;;;;;;5067463;28;19920;-45
2023/07/15 10:12:37;;;;;;;;;;;28.00;98.20;;;;;;5068334;28;19924;-45
2023/07/15 10:15:03;;;;;;;;;;;28.00;98.60;;;;;;5067073;28;20019;-47
2023/07/15 10:17:35;;;;;;;;;;;28.00;99.30;;;;;;5066521;28;19955;-47
2023/07/15 10:20:10;;;;;;;;;;;27.80;98.40;;;;;;5069532;28;20005;-46
2023/07/15 10:22:36;;;;;;;;;;;27.90;98.20;;;;;;5064712;28;20333;-47
2023/07/15 10:25:03;;;;;;;;;;;28.10;97.80;;;;;;5066317;28;19920;-47
2023/07/15 10:27:29;;;;;;;;;;;28.10;98.10;;;;;;5067723;28;20129;-48
2023/07/15 10:30:14;;;;;;;;;;;28.20;98.10;;;;;;5066771;28;19932;-46
2023/07/15 10:33:05;;;;;;;;;;;28.10;97.90;;;;;;5073480;28;19920;-46
2023/07/15 10:35:32;;;;;;;;;;;28.00;98.10;;;;;;5066298;28;20069;-46
2023/07/15 10:38:16;;;;;;;;;;;27.70;98.30;;;;;;5065997;28;19928;-49
2023/07/15 10:40:52;;;;;;;;;;;27.50;98.20;;;;;;5069002;28;19985;-47
2023/07/15 10:43:18;;;;;;;;;;;27.30;98.10;;;;;;5072886;28;19931;-47
2023/07/15 10:45:49;;;;;;;;;;;27.10;98.20;;;;;;5069754;28;20395;-47
2023/07/15 10:48:14;;;;;;;;;;;27.20;98.50;;;;;;5072301;28;19920;-47
2023/07/15 10:50:40;;;;;;;;;;;27.50;98.90;;;;;;5067806;28;20293;-47
2023/07/15 10:53:22;;;;;;;;;;;27.80;99.10;;;;;;5071480;28;20273;-46
2023/07/15 10:56:14;;;;;;;;;;;28.00;99.30;;;;;;5071916;28;19992;-46
2023/07/15 10:58:40;;;;;;;;;;;28.40;98.40;;;;;;5066734;28;19978;-47
2023/07/15 11:01:07;;;;;;;;;;;28.40;98.30;;;;;;5073567;28;20363;-46
2023/07/15 11:03:37;;;;;;;;;;;28.70;98.60;;;;;;5073468;28;20261;-46
2023/07/15 11:06:03;;;;;;;;;;;28.40;98.10;;;;;;5073044;28;20288;-46
2023/07/15 11:08:29;;;;;;;;;;;28.20;98.50;;;;;;5071517;28;19920;-46
2023/07/15 11:11:02;;;;;;;;;;;28.00;98.20;;;;;;5073459;28;19931;-45
2023/07/15 11:13:27;;;;;;;;;;;27.90;98.10;;;;;;5073428;28;19962;-46
2023/07/15 11:15:53;;;;;;;;;;;27.50;98.60;;;;;;5065509;28;19920;-46
2023/07/15 11:18:20;;;;;;;;;;;27.20;98.50;;;;;;5073433;28;19955;-45
2023/07/15 11:20:46;;;;;;;;;;;27.00;99.20;;;;;;5072440;28;19932;-45
2023/07/15 11:23:13;;;;;;;;;;;27.00;99.40;;;;;;5073373;28;20004;-48
2023/07/15 11:25:38;;;;;;;;;;;26.80;99.00;;;;;;5071725;28;19928;-45
2023/07/15 11:28:04;;;;;;;;;;;26.70;99.20;;;;;;5066514;28;19920;-46
2023/07/15 11:30:34;;;;;;;;;;;26.50;99.00;;;;;;5070893;28;19928;-44
2023/07/15 11:32:59;;;;;;;;;;;26.40;99.40;;;;;;5069133;28;19920;-46
2023/07/15 11:35:25;;;;;;;;;;;26.20;99.30;;;;;;5074342;28;19920;-44
2023/07/15 11:37:51;;;;;;;;;;;26.30;99.90;;;;;;5069836;28;19929;-44
2023/07/15 11:40:17;;;;;;;;;;;26.30;99.90;;;;;;5072831;28;20357;-46
2023/07/15 11:42:42;;;;;;;;;;;26.30;99.90;;;;;;5072653;28;20023;-46
2023/07/15 11:45:08;;;;;;;;;;;26.20;99.90;;;;;;5066065;28;19921;-44
2023/07/15 11:47:34;;;;;;;;;;;26.30;99.90;;;;;;5063828;28;20373;-47
2023/07/15 11:50:00;;;;;;;;;;;26.20;99.90;;;;;;5069101;28;20331;-43
2023/07/15 11:52:26;;;;;;;;;;;26.10;99.90;;;;;;5071370;28;19954;-45
2023/07/15 11:54:53;;;;;;;;;;;26.10;99.90;;;;;;5072570;28;19927;-48
2023/07/15 11:57:26;;;;;;;;;;;26.10;99.90;;;;;;5070885;28;19927;-46
2023/07/15 11:59:51;;;;;;;;;;;26.10;99.90;;;;;;5074179;28;19920;-46
2023/07/15 12:02:17;;;;;;;;;;;26.20;99.90;;;;;;5070975;28;19950;-45
2023/07/15 12:04:42;;;;;;;;;;;26.20;99.90;;;;;;5075182;28;19997;-45
2023/07/15 12:07:08;;;;;;;;;;;26.30;99.90;;;;;;5071698;28;19920;-45
2023/07/15 12:09:33;;;;;;;;;;;26.50;99.90;;;;;;5072699;28;19920;-42
2023/07/15 12:11:59;;;;;;;;;;;26.60;99.90;;;;;;5072516;28;19921;-44
2023/07/15 12:14:25;;;;;;;;;;;26.80;99.90;;;;;;5070093;28;19920;-43
2023/07/15 12:16:53;;;;;;;;;;;26.80;99.90;;;;;;5073070;28;19969;-47
2023/07/15 12:19:19;;;;;;;;;;;26.90;99.90;;;;;;5073461;28;20401;-45
2023/07/15 12:21:45;;;;;;;;;;;27.00;99.90;;;;;;5069428;28;19935;-45
2023/07/15 12:24:10;;;;;;;;;;;26.90;99.90;;;;;;5071751;28;21332;-44
2023/07/15 12:26:36;;;;;;;;;;;26.90;99.90;;;;;;5073223;28;19932;-42
2023/07/15 12:29:01;;;;;;;;;;;26.80;99.90;;;;;;5073197;28;19925;-46
2023/07/15 12:31:27;;;;;;;;;;;26.70;99.90;;;;;;5061951;28;19928;-43
2023/07/15 12:33:52;;;;;;;;;;;26.40;99.90;;;;;;5075110;28;19924;-44
2023/07/15 12:36:18;;;;;;;;;;;26.30;99.90;;;;;;5071970;28;19927;-44
2023/07/15 12:38:44;;;;;;;;;;;26.30;99.90;;;;;;5073185;28;19920;-53
2023/07/15 12:41:10;;;;;;;;;;;26.30;99.90;;;;;;5071160;28;19935;-45
2023/07/15 12:43:38;;;;;;;;;;;26.20;99.90;;;;;;5070011;28;20383;-45
2023/07/15 12:46:04;;;;;;;;;;;26.30;99.90;;;;;;5072321;28;19921;-45
2023/07/15 12:48:29;;;;;;;;;;;26.20;99.90;;;;;;5072856;28;19986;-45
2023/07/15 12:50:55;;;;;;;;;;;26.10;99.90;;;;;;5069436;28;20262;-44
2023/07/15 12:53:21;;;;;;;;;;;26.20;99.90;;;;;;5069900;28;19924;-42
2023/07/15 12:55:47;;;;;;;;;;;26.10;99.90;;;;;;5059481;28;20009;-42
2023/07/15 12:58:13;;;;;;;;;;;26.20;99.90;;;;;;5063176;28;20296;-43
2023/07/15 13:00:38;;;;;;;;;;;26.30;99.90;;;;;;5062264;28;20028;-45
2023/07/15 13:03:04;;;;;;;;;;;26.30;99.90;;;;;;5064465;28;20028;-44
2023/07/15 13:05:30;;;;;;;;;;;26.30;99.90;;;;;;5069912;28;19920;-44
2023/07/15 13:07:56;;;;;;;;;;;26.40;99.90;;;;;;5071147;28;20057;-46
2023/07/15 13:10:22;;;;;;;;;;;26.50;99.90;;;;;;5069902;28;19968;-45
2023/07/15 13:12:47;;;;;;;;;;;26.40;99.90;;;;;;5062478;28;20261;-46
2023/07/15 13:15:14;;;;;;;;;;;26.50;99.90;;;;;;5069553;28;20006;-45
2023/07/15 13:17:40;;;;;;;;;;;27.10;99.90;;;;;;5071480;28;20035;-45
2023/07/15 13:20:09;;;;;;;;;;;27.30;99.90;;;;;;5071818;28;20325;-43
2023/07/15 13:22:37;;;;;;;;;;;27.70;99.90;;;;;;5062111;28;20031;-44
2023/07/15 13:25:03;;;;;;;;;;;28.00;99.90;;;;;;5068596;28;19970;-45
2023/07/15 13:27:29;;;;;;;;;;;28.10;99.90;;;;;;5070283;28;19920;-45
2023/07/15 13:29:54;;;;;;;;;;;28.10;99.90;;;;;;5071789;28;19927;-43
2023/07/15 13:32:20;;;;;;;;;;;28.50;99.90;;;;;;5070960;28;19921;-44
2023/07/15 13:34:45;;;;;;;;;;;28.30;99.90;;;;;;5071361;28;20000;-46
2023/07/15 13:37:11;;;;;;;;;;;28.10;99.70;;;;;;5070888;28;19925;-44
2023/07/15 13:39:42;;;;;;;;;;;28.20;99.90;;;;;;5071288;28;20247;-47
2023/07/15 13:42:19;;;;;;;;;;;28.10;99.90;;;;;;5068960;28;19999;-46
2023/07/15 13:44:48;;;;;;;;;;;28.10;99.90;;;;;;5067107;28;20075;-45
2023/07/15 13:47:13;;;;;;;;;;;28.40;99.90;;;;;;5070044;28;20057;-44
2023/07/15 13:49:39;;;;;;;;;;;28.40;99.90;;;;;;5070437;28;20005;-44
2023/07/15 13:52:05;;;;;;;;;;;28.50;99.90;;;;;;5072232;28;19927;-43
2023/07/15 13:54:31;;;;;;;;;;;28.60;99.90;;;;;;5069621;28;19946;-45
2023/07/15 13:56:56;;;;;;;;;;;29.00;99.90;;;;;;5070289;28;19920;-49
2023/07/15 13:59:22;;;;;;;;;;;29.10;99.90;;;;;;5069790;28;19924;-44
2023/07/15 14:01:48;;;;;;;;;;;29.10;99.50;;;;;;5070582;28;19920;-41
2023/07/15 14:04:14;;;;;;;;;;;29.00;99.20;;;;;;5068101;28;19927;-45
2023/07/15 14:06:40;;;;;;;;;;;28.90;98.10;;;;;;5070344;28;19930;-42
2023/07/15 14:09:09;;;;;;;;;;;28.70;98.70;;;;;;5066923;28;19920;-42